Time;durP1;ratioP1;P1;durP2;ratioP2;P2;SDS_P1;SDS_P2;PMS_P1;PMS_P2;Temp;Humidity;BMP_temperature;BMP_pressure;BME280_temperature;BME280_humidity;BME280_pressure;Samples;Min_cycle;Max_cycle;Signal;HPM_P1;HPM_P2
2022/01/10 00:00:37;;;;;;;27.42;9.57;;;3.50;99.90;;;;;;5097392;28;20032;-69
2022/01/10 00:03:06;;;;;;;28.20;9.45;;;3.50;99.90;;;;;;5097357;28;20049;-69
2022/01/10 00:05:34;;;;;;;23.15;9.60;;;3.50;99.90;;;;;;5079418;28;20020;-69
2022/01/10 00:08:04;;;;;;;25.50;9.80;;;3.50;99.90;;;;;;5096587;28;20030;-69
2022/01/10 00:10:33;;;;;;;23.52;10.85;;;3.60;99.90;;;;;;5096679;28;20024;-69
2022/01/10 00:13:02;;;;;;;26.65;9.52;;;3.60;99.90;;;;;;5096288;28;20069;-69
2022/01/10 00:15:29;;;;;;;19.95;8.70;;;3.60;99.90;;;;;;5096651;28;20039;-69
2022/01/10 00:17:56;;;;;;;26.05;8.50;;;3.60;99.90;;;;;;5082123;28;20012;-69
2022/01/10 00:20:23;;;;;;;25.25;9.13;;;3.60;99.90;;;;;;5100415;28;20043;-69
2022/01/10 00:22:51;;;;;;;25.38;9.32;;;3.60;99.90;;;;;;5100179;28;20024;-69
2022/01/10 00:25:20;;;;;;;26.40;8.85;;;3.60;99.90;;;;;;5100170;28;20504;-69
2022/01/10 00:27:49;;;;;;;19.52;9.57;;;3.60;99.90;;;;;;5082130;28;20042;-69
2022/01/10 00:30:17;;;;;;;20.40;8.95;;;3.60;99.90;;;;;;5101162;28;20400;-69
2022/01/10 00:32:45;;;;;;;27.60;9.20;;;3.60;99.90;;;;;;5083537;28;20403;-69
2022/01/10 00:35:13;;;;;;;21.35;9.02;;;3.60;99.90;;;;;;5101153;28;20023;-69
2022/01/10 00:37:43;;;;;;;22.30;9.68;;;3.60;99.90;;;;;;5101003;28;20031;-69
2022/01/10 00:40:13;;;;;;;30.00;10.20;;;3.60;99.90;;;;;;5100701;28;20419;-69
2022/01/10 00:42:41;;;;;;;23.25;9.90;;;3.60;99.90;;;;;;5082787;28;20437;-69
2022/01/10 00:45:23;;;;;;;21.10;7.97;;;3.60;99.90;;;;;;5100670;28;20070;-69
2022/01/10 00:47:51;;;;;;;30.52;9.27;;;3.60;99.90;;;;;;5100737;28;20039;-69
2022/01/10 00:50:19;;;;;;;25.63;9.45;;;3.60;99.90;;;;;;5081742;28;20047;-69
2022/01/10 00:52:46;;;;;;;31.65;10.27;;;3.60;99.90;;;;;;5099425;28;20024;-69
2022/01/10 00:55:14;;;;;;;38.25;12.30;;;3.60;99.90;;;;;;5100156;28;20016;-69
2022/01/10 00:57:42;;;;;;;27.45;10.63;;;3.60;99.90;;;;;;5099572;28;20095;-69
2022/01/10 01:00:12;;;;;;;23.05;9.55;;;3.60;99.90;;;;;;5099526;28;20324;-69
2022/01/10 01:02:40;;;;;;;29.13;10.23;;;3.60;99.90;;;;;;5099508;28;20051;-69
2022/01/10 01:05:11;;;;;;;28.63;11.00;;;3.60;99.90;;;;;;5099598;28;20032;-69
2022/01/10 01:07:39;;;;;;;21.15;10.02;;;3.60;99.90;;;;;;5099406;28;20099;-69
2022/01/10 01:13:00;;;;;;;30.80;9.60;;;3.50;99.90;;;;;;5100375;28;20157;-69
2022/01/10 01:15:44;;;;;;;22.23;9.43;;;3.50;99.90;;;;;;5099996;28;20068;-69
2022/01/10 01:18:21;;;;;;;29.25;10.63;;;3.50;99.90;;;;;;5084512;28;20428;-69
2022/01/10 01:26:19;;;;;;;24.05;9.77;;;3.40;99.90;;;;;;5100157;28;20077;-69
2022/01/10 01:28:47;;;;;;;32.25;10.23;;;3.40;99.90;;;;;;5064282;28;20026;-69
2022/01/10 01:31:14;;;;;;;30.63;10.30;;;3.40;99.90;;;;;;5099542;28;20024;-69
2022/01/10 01:33:41;;;;;;;26.35;9.95;;;3.40;99.90;;;;;;5064170;28;20028;-69
2022/01/10 01:36:09;;;;;;;27.27;10.48;;;3.40;99.90;;;;;;5081113;28;20043;-69
2022/01/10 01:38:37;;;;;;;28.30;9.68;;;3.40;99.90;;;;;;5080764;28;20024;-69
2022/01/10 01:43:52;;;;;;;24.50;9.30;;;3.40;99.90;;;;;;5098898;28;20043;-69
2022/01/10 01:46:20;;;;;;;32.55;10.77;;;3.40;99.90;;;;;;5098538;28;20313;-69
2022/01/10 01:48:49;;;;;;;37.03;9.88;;;3.40;99.90;;;;;;5098544;28;20020;-69
2022/01/10 01:51:16;;;;;;;28.88;11.45;;;3.50;99.90;;;;;;5098731;28;20020;-69
2022/01/10 01:53:45;;;;;;;13.93;6.65;;;3.50;99.90;;;;;;5080815;28;20335;-69
2022/01/10 01:56:14;;;;;;;37.97;14.15;;;3.50;99.90;;;;;;5100052;28;20024;-69
2022/01/10 01:58:42;;;;;;;28.77;9.82;;;3.50;99.90;;;;;;5099345;28;20024;-69
2022/01/10 02:01:11;;;;;;;40.15;12.85;;;3.50;99.90;;;;;;5099418;28;20103;-69
2022/01/10 02:03:38;;;;;;;30.15;10.30;;;3.60;99.90;;;;;;5081271;28;20020;-69
2022/01/10 02:06:06;;;;;;;25.17;10.18;;;3.50;99.90;;;;;;5099698;28;20035;-69
2022/01/10 02:08:38;;;;;;;29.10;9.77;;;3.50;99.90;;;;;;5099026;28;20055;-69
2022/01/10 02:11:11;;;;;;;29.25;11.60;;;3.60;99.90;;;;;;5099512;28;20455;-69
2022/01/10 02:13:40;;;;;;;36.50;11.70;;;3.60;99.90;;;;;;5098497;28;20023;-69
2022/01/10 02:16:10;;;;;;;32.15;10.52;;;3.60;99.90;;;;;;5076511;28;20432;-69
2022/01/10 02:18:39;;;;;;;35.53;10.98;;;3.60;99.90;;;;;;5077706;28;20095;-69
2022/01/10 02:21:09;;;;;;;22.35;9.60;;;3.60;99.90;;;;;;5077848;28;20025;-69
2022/01/10 02:23:38;;;;;;;25.52;10.45;;;3.60;99.90;;;;;;5077725;28;20020;-69
2022/01/10 02:26:05;;;;;;;31.58;10.20;;;3.60;99.90;;;;;;5077639;28;20360;-69
2022/01/10 02:28:32;;;;;;;32.03;12.02;;;3.60;99.90;;;;;;5077530;28;20024;-69
2022/01/10 02:31:00;;;;;;;44.03;11.85;;;3.60;99.90;;;;;;5077670;28;20028;-69
2022/01/10 02:33:31;;;;;;;25.52;9.77;;;3.60;99.90;;;;;;5077345;28;20115;-69
2022/01/10 02:36:19;;;;;;;26.95;9.75;;;3.50;99.90;;;;;;5077665;28;20099;-69
2022/01/10 02:38:54;;;;;;;31.67;9.70;;;3.50;99.90;;;;;;5078368;28;20335;-69
2022/01/10 02:41:24;;;;;;;30.23;9.85;;;3.50;99.90;;;;;;5078108;28;20092;-69
2022/01/10 02:43:53;;;;;;;47.08;9.30;;;3.50;99.90;;;;;;5078178;28;20025;-69
2022/01/10 02:46:20;;;;;;;26.65;8.15;;;3.50;99.90;;;;;;5078734;28;20366;-69
2022/01/10 02:48:48;;;;;;;22.60;8.77;;;3.50;99.90;;;;;;5077207;28;20100;-69
2022/01/10 02:51:16;;;;;;;29.98;9.82;;;3.50;99.90;;;;;;5078684;28;20413;-69
2022/01/10 02:53:44;;;;;;;21.83;9.10;;;3.50;99.90;;;;;;5078130;28;20043;-69
2022/01/10 02:56:12;;;;;;;17.58;9.20;;;3.50;99.90;;;;;;5077559;28;20017;-69
2022/01/10 02:58:39;;;;;;;22.77;9.43;;;3.40;99.90;;;;;;5077049;28;20021;-69
2022/01/10 03:01:06;;;;;;;23.85;9.52;;;3.40;99.90;;;;;;5076896;28;20079;-69
2022/01/10 03:03:34;;;;;;;29.52;9.90;;;3.40;99.90;;;;;;5076944;28;20031;-69
2022/01/10 03:06:02;;;;;;;23.00;9.73;;;3.40;99.90;;;;;;5077451;28;20062;-69
2022/01/10 03:08:31;;;;;;;22.60;11.18;;;3.40;99.90;;;;;;5076704;28;20028;-69
2022/01/10 03:10:58;;;;;;;32.70;11.77;;;3.40;99.90;;;;;;5076786;28;20029;-69
2022/01/10 03:13:25;;;;;;;28.08;10.68;;;3.40;99.90;;;;;;5075585;28;20031;-69
2022/01/10 03:15:53;;;;;;;27.75;9.50;;;3.40;99.90;;;;;;5058981;28;20109;-69
2022/01/10 03:18:20;;;;;;;31.63;9.35;;;3.40;99.90;;;;;;5075920;28;20416;-69
2022/01/10 03:20:48;;;;;;;27.33;10.00;;;3.40;99.90;;;;;;5077615;28;20024;-69
2022/01/10 03:23:15;;;;;;;28.10;10.48;;;3.30;99.90;;;;;;5076406;28;20031;-69
2022/01/10 03:25:42;;;;;;;23.58;10.07;;;3.30;99.90;;;;;;5078273;28;20024;-69
2022/01/10 03:28:13;;;;;;;39.20;10.85;;;3.30;99.90;;;;;;5077552;28;20021;-69
2022/01/10 03:30:41;;;;;;;38.50;11.70;;;3.30;99.90;;;;;;5077433;28;20029;-69
2022/01/10 03:33:09;;;;;;;26.77;10.40;;;3.30;99.90;;;;;;5077452;28;20028;-69
2022/01/10 03:35:36;;;;;;;28.17;11.35;;;3.30;99.90;;;;;;5060033;28;20082;-69
2022/01/10 03:38:04;;;;;;;36.40;11.13;;;3.30;99.90;;;;;;5076982;28;20027;-69
2022/01/10 03:40:32;;;;;;;33.22;11.65;;;3.30;99.90;;;;;;5076483;28;20111;-69
2022/01/10 03:43:00;;;;;;;32.58;12.35;;;3.20;99.90;;;;;;5076450;28;20033;-69
2022/01/10 03:45:27;;;;;;;26.80;12.07;;;3.20;99.90;;;;;;5075647;28;20029;-69
2022/01/10 03:47:54;;;;;;;27.80;10.00;;;3.20;99.90;;;;;;5077241;28;20321;-69
2022/01/10 03:50:21;;;;;;;42.67;12.15;;;3.20;99.90;;;;;;5077008;28;20028;-69
2022/01/10 03:52:49;;;;;;;35.63;13.82;;;3.20;99.90;;;;;;5079593;28;20024;-69
2022/01/10 03:55:17;;;;;;;28.30;11.05;;;3.20;99.90;;;;;;5079436;28;20016;-69
2022/01/10 03:57:44;;;;;;;29.33;11.07;;;3.20;99.90;;;;;;5080408;28;20031;-69
2022/01/10 04:00:12;;;;;;;38.78;12.15;;;3.20;99.90;;;;;;5080411;28;20024;-69
2022/01/10 04:02:40;;;;;;;36.40;12.05;;;3.20;99.90;;;;;;5081238;28;20025;-69
2022/01/10 04:05:08;;;;;;;29.65;11.70;;;3.20;99.90;;;;;;5080201;28;20039;-69
2022/01/10 04:07:37;;;;;;;39.17;12.13;;;3.20;99.90;;;;;;5081252;28;20439;-69
2022/01/10 04:10:05;;;;;;;30.77;12.02;;;3.20;99.90;;;;;;5081650;28;20025;-69
2022/01/10 04:12:33;;;;;;;47.60;12.88;;;3.20;99.90;;;;;;5079981;28;20031;-69
2022/01/10 04:15:00;;;;;;;30.70;11.07;;;3.20;99.90;;;;;;5081606;28;20013;-69
2022/01/10 04:17:28;;;;;;;35.58;11.75;;;3.20;99.90;;;;;;5100727;28;20121;-69
2022/01/10 04:19:56;;;;;;;27.33;10.75;;;3.20;99.90;;;;;;5101159;28;20021;-69
2022/01/10 04:22:23;;;;;;;34.83;11.93;;;3.20;99.90;;;;;;5100398;28;20031;-69
2022/01/10 04:24:51;;;;;;;30.13;11.68;;;3.20;99.90;;;;;;5100193;28;20020;-69
2022/01/10 04:27:19;;;;;;;34.58;11.77;;;3.10;99.90;;;;;;5082444;28;20335;-69
2022/01/10 04:29:47;;;;;;;31.30;11.65;;;3.10;99.90;;;;;;5100647;28;20023;-69
2022/01/10 04:32:14;;;;;;;34.65;12.65;;;3.10;99.90;;;;;;5100551;28;20028;-69
2022/01/10 04:34:43;;;;;;;31.50;11.98;;;3.00;99.90;;;;;;5100304;28;20400;-69
2022/01/10 04:37:10;;;;;;;38.40;12.20;;;3.00;99.90;;;;;;5100107;28;20055;-69
2022/01/10 04:39:38;;;;;;;42.75;12.85;;;2.90;99.90;;;;;;5099910;28;20048;-69
2022/01/10 04:42:05;;;;;;;25.85;10.40;;;2.90;99.90;;;;;;5081927;28;20423;-69
2022/01/10 04:44:33;;;;;;;37.67;11.95;;;2.90;99.90;;;;;;5100140;28;20028;-69
2022/01/10 04:47:00;;;;;;;37.78;12.25;;;2.80;99.90;;;;;;5101453;28;20086;-69
2022/01/10 04:49:32;;;;;;;31.00;11.65;;;2.80;99.90;;;;;;5100680;28;20028;-69
2022/01/10 04:52:00;;;;;;;33.83;11.75;;;2.80;99.90;;;;;;5100310;28;20052;-69
2022/01/10 04:54:27;;;;;;;33.35;13.45;;;2.80;99.90;;;;;;5082559;28;20423;-69
2022/01/10 04:56:55;;;;;;;32.65;12.85;;;2.80;99.90;;;;;;5100737;28;20424;-69
2022/01/10 04:59:22;;;;;;;38.05;12.18;;;2.80;99.90;;;;;;5100745;28;20028;-69
2022/01/10 05:01:49;;;;;;;35.55;13.13;;;2.80;99.90;;;;;;5100483;28;20040;-69
2022/01/10 05:04:17;;;;;;;33.90;12.23;;;2.80;99.90;;;;;;5099729;28;20446;-69
2022/01/10 05:06:45;;;;;;;30.65;11.93;;;2.80;99.90;;;;;;5100051;28;20047;-69
2022/01/10 05:09:12;;;;;;;28.73;13.07;;;2.80;99.90;;;;;;5099261;28;20032;-69
2022/01/10 05:11:40;;;;;;;43.80;12.57;;;2.80;99.90;;;;;;5099307;28;20046;-69
2022/01/10 05:14:09;;;;;;;35.03;11.85;;;2.80;99.90;;;;;;5099244;28;20020;-69
2022/01/10 05:16:39;;;;;;;33.45;12.00;;;2.80;99.90;;;;;;5077834;28;20079;-69
2022/01/10 05:19:10;;;;;;;32.30;11.63;;;2.90;99.90;;;;;;5079471;28;20020;-69
2022/01/10 05:21:37;;;;;;;36.92;13.63;;;2.90;99.90;;;;;;5078891;28;20042;-69
2022/01/10 05:24:05;;;;;;;37.70;12.48;;;2.80;99.90;;;;;;5079116;28;20020;-69
2022/01/10 05:26:32;;;;;;;39.65;13.45;;;2.90;99.90;;;;;;5079105;28;20032;-69
2022/01/10 05:29:01;;;;;;;40.17;13.63;;;2.90;99.90;;;;;;5079933;28;20017;-69
2022/01/10 05:31:30;;;;;;;30.95;12.73;;;2.90;99.90;;;;;;5079760;28;20041;-69
2022/01/10 05:33:57;;;;;;;37.72;14.85;;;2.90;99.90;;;;;;5079884;28;20052;-69
2022/01/10 05:36:25;;;;;;;32.78;12.15;;;2.90;99.90;;;;;;5079555;28;20112;-69
2022/01/10 05:38:53;;;;;;;38.15;12.90;;;2.80;99.90;;;;;;5078356;28;20032;-69
2022/01/10 05:41:22;;;;;;;35.33;14.38;;;2.80;99.90;;;;;;5079829;28;20024;-69
2022/01/10 05:43:49;;;;;;;41.58;13.10;;;2.80;99.90;;;;;;5079936;28;20420;-69
2022/01/10 05:46:19;;;;;;;38.13;12.15;;;2.80;99.90;;;;;;5078020;28;20024;-69
2022/01/10 05:48:49;;;;;;;30.73;12.82;;;2.70;99.90;;;;;;5078320;28;20024;-69
2022/01/10 05:51:17;;;;;;;34.75;15.20;;;2.70;99.90;;;;;;5077367;28;20025;-69
2022/01/10 05:53:44;;;;;;;31.98;13.20;;;2.70;99.90;;;;;;5078403;28;20024;-69
2022/01/10 05:56:11;;;;;;;35.85;13.65;;;2.70;99.90;;;;;;5078524;28;20028;-69
2022/01/10 05:58:39;;;;;;;40.38;14.48;;;2.70;99.90;;;;;;5078719;28;20425;-69
2022/01/10 06:01:06;;;;;;;28.77;12.48;;;2.70;99.90;;;;;;5077831;28;20052;-69
2022/01/10 06:03:33;;;;;;;37.35;15.02;;;2.70;99.90;;;;;;5078624;28;20024;-69
2022/01/10 06:06:00;;;;;;;35.95;13.57;;;2.70;99.90;;;;;;5077622;28;20035;-69
2022/01/10 06:08:28;;;;;;;38.13;13.77;;;2.70;99.90;;;;;;5077246;28;20020;-69
2022/01/10 06:10:55;;;;;;;31.33;13.05;;;2.70;99.90;;;;;;5079293;28;20024;-69
2022/01/10 06:13:23;;;;;;;40.58;12.73;;;2.70;99.90;;;;;;5078926;28;20021;-69
2022/01/10 06:15:51;;;;;;;40.97;14.93;;;2.70;99.90;;;;;;5084179;28;20043;-69
2022/01/10 06:18:19;;;;;;;39.90;14.88;;;2.80;99.90;;;;;;5098920;28;20027;-69
2022/01/10 06:20:47;;;;;;;28.75;13.10;;;2.80;99.90;;;;;;5099630;28;20285;-69
2022/01/10 06:23:15;;;;;;;34.80;12.50;;;2.80;99.90;;;;;;5098703;28;20024;-69
2022/01/10 06:25:43;;;;;;;24.17;12.30;;;2.80;99.90;;;;;;5099087;28;20359;-69
2022/01/10 06:28:10;;;;;;;39.08;13.43;;;2.80;99.90;;;;;;5098927;28;20028;-69
2022/01/10 06:30:38;;;;;;;31.63;12.82;;;2.80;99.90;;;;;;5097996;28;20020;-69
2022/01/10 06:33:06;;;;;;;36.25;13.23;;;2.80;99.90;;;;;;5079827;28;20361;-69
2022/01/10 06:35:34;;;;;;;36.53;12.75;;;2.80;99.90;;;;;;5098232;28;20019;-69
2022/01/10 06:38:02;;;;;;;41.22;14.00;;;2.80;99.90;;;;;;5097494;28;20101;-69
2022/01/10 06:40:30;;;;;;;36.40;13.73;;;2.80;99.90;;;;;;5098402;28;20147;-69
2022/01/10 06:42:57;;;;;;;37.45;14.60;;;2.80;99.90;;;;;;5097456;28;20036;-69
2022/01/10 06:45:25;;;;;;;32.85;13.60;;;2.80;99.90;;;;;;5097519;28;20020;-69
2022/01/10 06:47:53;;;;;;;36.08;14.85;;;2.90;99.90;;;;;;5079620;28;20502;-69
2022/01/10 06:50:21;;;;;;;36.08;14.75;;;2.90;99.90;;;;;;5079552;28;20067;-69
2022/01/10 06:52:51;;;;;;;36.58;14.07;;;3.00;99.90;;;;;;5098239;28;20055;-69
2022/01/10 06:55:18;;;;;;;37.60;14.95;;;2.90;99.90;;;;;;5099079;28;20289;-69
2022/01/10 06:57:45;;;;;;;29.77;13.85;;;3.00;99.90;;;;;;5098660;28;20023;-69
2022/01/10 07:00:13;;;;;;;45.90;16.98;;;3.00;99.90;;;;;;5080481;28;20315;-69
2022/01/10 07:02:43;;;;;;;48.00;14.80;;;3.00;99.90;;;;;;5098698;28;20087;-69
2022/01/10 07:05:10;;;;;;;35.53;14.20;;;3.00;99.90;;;;;;5080337;28;20032;-69
2022/01/10 07:07:37;;;;;;;51.22;15.30;;;3.00;99.90;;;;;;5098590;28;20048;-69
2022/01/10 07:10:06;;;;;;;41.90;14.32;;;3.10;99.90;;;;;;5098147;28;20073;-69
2022/01/10 07:12:33;;;;;;;35.78;15.20;;;3.10;99.90;;;;;;5097146;28;20103;-69
2022/01/10 07:15:01;;;;;;;39.92;16.15;;;3.10;99.90;;;;;;5096902;28;20031;-69
2022/01/10 07:17:30;;;;;;;41.25;16.35;;;3.10;99.90;;;;;;5096803;28;20043;-69
2022/01/10 07:19:57;;;;;;;35.47;15.63;;;3.10;99.90;;;;;;5096848;28;20024;-69
2022/01/10 07:22:24;;;;;;;38.05;14.88;;;3.10;99.90;;;;;;5096995;28;20024;-70
2022/01/10 07:24:52;;;;;;;45.10;15.38;;;3.10;99.90;;;;;;5096867;28;20468;-69
2022/01/10 07:27:19;;;;;;;52.28;17.85;;;3.10;99.90;;;;;;5096306;28;20028;-69
2022/01/10 07:29:49;;;;;;;36.60;14.63;;;3.10;99.90;;;;;;5062356;28;20036;-68
2022/01/10 07:32:17;;;;;;;40.20;15.95;;;3.20;99.90;;;;;;5078766;28;20323;-71
2022/01/10 07:34:45;;;;;;;35.42;16.85;;;3.20;99.90;;;;;;5097523;28;20028;-71
2022/01/10 07:37:16;;;;;;;37.03;16.05;;;3.20;99.90;;;;;;5097862;28;20024;-72
2022/01/10 07:39:44;;;;;;;32.92;14.38;;;3.20;99.90;;;;;;5097576;28;20416;-73
2022/01/10 07:42:11;;;;;;;46.38;15.77;;;3.20;99.90;;;;;;5098078;28;20093;-74
2022/01/10 07:44:39;;;;;;;34.17;16.13;;;3.20;99.90;;;;;;5097854;28;20024;-73
2022/01/10 07:47:07;;;;;;;34.60;16.20;;;3.20;99.90;;;;;;5079657;28;20480;-73
2022/01/10 07:49:35;;;;;;;44.13;15.18;;;3.20;99.90;;;;;;5097411;28;20040;-73
2022/01/10 07:52:03;;;;;;;42.88;15.90;;;3.20;99.90;;;;;;5079572;28;20046;-72
2022/01/10 07:54:30;;;;;;;41.10;18.08;;;3.20;99.90;;;;;;5078758;28;20113;-74
2022/01/10 07:56:58;;;;;;;45.47;18.65;;;3.20;99.90;;;;;;5096591;28;20020;-74
2022/01/10 07:59:26;;;;;;;47.75;16.75;;;3.20;99.90;;;;;;5079220;28;20066;-74
2022/01/10 08:01:53;;;;;;;40.38;16.15;;;3.20;99.90;;;;;;5079129;28;20016;-71
2022/01/10 08:04:20;;;;;;;37.67;15.45;;;3.20;99.90;;;;;;5096437;28;20024;-72
2022/01/10 08:06:48;;;;;;;40.65;15.88;;;3.20;99.90;;;;;;5096449;28;20020;-72
2022/01/10 08:09:16;;;;;;;44.90;17.35;;;3.20;99.90;;;;;;5096321;28;20028;-72
2022/01/10 08:11:44;;;;;;;34.63;16.63;;;3.30;99.90;;;;;;5096234;28;20027;-74
2022/01/10 08:14:11;;;;;;;39.10;15.57;;;3.20;99.90;;;;;;5096308;28;20020;-72
2022/01/10 08:16:38;;;;;;;52.22;16.70;;;3.30;99.90;;;;;;5075773;28;20358;-72
2022/01/10 08:19:06;;;;;;;42.90;17.40;;;3.30;99.90;;;;;;5075802;28;20312;-72
2022/01/10 08:21:33;;;;;;;40.38;18.85;;;3.30;99.90;;;;;;5077012;28;20153;-71
2022/01/10 08:24:00;;;;;;;41.25;17.42;;;3.30;99.90;;;;;;5077222;28;20099;-72
2022/01/10 08:26:28;;;;;;;32.25;15.68;;;3.40;99.90;;;;;;5076061;28;20024;-72
2022/01/10 08:28:55;;;;;;;47.80;23.33;;;3.40;99.90;;;;;;5076929;28;20020;-72
2022/01/10 08:31:22;;;;;;;50.05;18.83;;;3.40;99.90;;;;;;5077405;28;20375;-70
2022/01/10 08:33:49;;;;;;;38.45;16.55;;;3.50;99.90;;;;;;5077346;28;20032;-69
2022/01/10 08:36:16;;;;;;;38.90;17.48;;;3.50;99.90;;;;;;5076446;28;20105;-68
2022/01/10 08:38:44;;;;;;;49.00;19.13;;;3.50;99.90;;;;;;5060702;28;20028;-68
2022/01/10 08:41:11;;;;;;;39.72;18.17;;;3.50;99.90;;;;;;5079958;28;20025;-78
2022/01/10 08:43:38;;;;;;;43.83;17.80;;;3.50;99.90;;;;;;5079586;28;20412;-68
2022/01/10 08:46:05;;;;;;;38.75;17.55;;;3.50;99.90;;;;;;5080562;28;20032;-68
2022/01/10 08:48:33;;;;;;;41.42;19.50;;;3.50;99.90;;;;;;5079806;28;20377;-68
2022/01/10 08:51:00;;;;;;;38.80;17.48;;;3.40;99.90;;;;;;5080681;28;20029;-68
2022/01/10 08:53:27;;;;;;;43.38;17.25;;;3.40;99.90;;;;;;5079922;28;20074;-68
2022/01/10 08:55:55;;;;;;;51.75;19.92;;;3.40;99.90;;;;;;5078568;28;20336;-68
2022/01/10 08:58:23;;;;;;;43.90;17.63;;;3.40;99.90;;;;;;5079761;28;20043;-68
2022/01/10 09:00:50;;;;;;;39.15;16.80;;;3.40;99.90;;;;;;5079265;28;20020;-68
2022/01/10 09:03:18;;;;;;;43.95;20.75;;;3.40;99.90;;;;;;5079209;28;20051;-68
2022/01/10 09:05:45;;;;;;;49.35;19.00;;;3.40;99.90;;;;;;5080625;28;20032;-68
2022/01/10 09:08:12;;;;;;;47.85;18.40;;;3.40;99.90;;;;;;5079251;28;20032;-68
2022/01/10 09:10:40;;;;;;;39.85;17.80;;;3.40;99.90;;;;;;5080151;28;20024;-68
2022/01/10 09:13:07;;;;;;;50.45;19.40;;;3.50;99.90;;;;;;5079955;28;20107;-68
2022/01/10 09:15:36;;;;;;;41.25;20.80;;;3.50;99.90;;;;;;5083250;28;20044;-68
2022/01/10 09:18:05;;;;;;;61.03;22.55;;;3.60;99.90;;;;;;5099489;28;20021;-68
2022/01/10 09:20:32;;;;;;;44.17;18.33;;;3.70;99.90;;;;;;5099135;28;20335;-68
2022/01/10 09:23:00;;;;;;;40.33;17.08;;;3.70;99.90;;;;;;5081118;28;20020;-68
2022/01/10 09:25:27;;;;;;;42.55;18.38;;;3.90;99.90;;;;;;5099125;28;20035;-68
2022/01/10 09:27:55;;;;;;;45.17;18.05;;;3.90;99.90;;;;;;5099090;28;20020;-68
2022/01/10 09:30:23;;;;;;;45.25;18.15;;;4.00;99.90;;;;;;5081064;28;20446;-68
2022/01/10 09:32:50;;;;;;;37.72;17.80;;;4.00;99.90;;;;;;5098942;28;20028;-68
2022/01/10 09:35:18;;;;;;;37.25;17.20;;;4.10;99.90;;;;;;5099341;28;20080;-68
2022/01/10 09:37:46;;;;;;;36.55;16.67;;;4.10;99.90;;;;;;5098979;28;20415;-68
2022/01/10 09:40:13;;;;;;;41.95;17.77;;;4.20;99.90;;;;;;5099631;28;20016;-68
2022/01/10 09:42:42;;;;;;;35.92;15.65;;;4.20;99.90;;;;;;5081856;28;20324;-68
2022/01/10 09:45:10;;;;;;;42.75;16.65;;;4.30;99.90;;;;;;5081653;28;20030;-68
2022/01/10 09:47:37;;;;;;;34.83;17.35;;;4.30;99.90;;;;;;5100065;28;20346;-69
2022/01/10 09:50:08;;;;;;;32.35;15.70;;;4.40;99.90;;;;;;5099155;28;20016;-69
2022/01/10 09:52:37;;;;;;;41.05;16.90;;;4.40;99.90;;;;;;5099405;28;20089;-68
2022/01/10 09:55:05;;;;;;;26.67;15.48;;;4.50;99.90;;;;;;5081494;28;20024;-68
2022/01/10 09:57:33;;;;;;;32.70;14.80;;;4.50;99.90;;;;;;5099339;28;20093;-68
2022/01/10 10:00:01;;;;;;;35.63;15.43;;;4.50;99.90;;;;;;5080643;28;20030;-70
2022/01/10 10:02:34;;;;;;;37.35;15.07;;;4.60;99.90;;;;;;5098519;28;20488;-68
2022/01/10 10:05:08;;;;;;;35.85;14.27;;;4.60;99.90;;;;;;5080343;28;20048;-68
2022/01/10 10:07:41;;;;;;;41.47;16.17;;;4.70;99.90;;;;;;5098281;28;20433;-68
2022/01/10 10:10:14;;;;;;;28.27;14.43;;;4.80;99.90;;;;;;5098698;28;20024;-69
2022/01/10 10:12:43;;;;;;;35.10;14.63;;;4.80;99.90;;;;;;5098305;28;20024;-69
2022/01/10 10:15:15;;;;;;;36.17;15.75;;;4.90;99.90;;;;;;5098725;28;20027;-68
2022/01/10 10:17:44;;;;;;;28.17;12.82;;;5.00;99.90;;;;;;5077683;28;20036;-69
2022/01/10 10:20:15;;;;;;;29.17;12.73;;;5.10;99.90;;;;;;5078382;28;20021;-68
2022/01/10 10:22:46;;;;;;;31.20;14.10;;;5.10;99.90;;;;;;5078387;28;20064;-68
2022/01/10 10:25:14;;;;;;;30.42;13.75;;;5.20;99.90;;;;;;5078449;28;20112;-68
2022/01/10 10:27:44;;;;;;;40.65;15.68;;;5.20;99.90;;;;;;5078593;28;20031;-68
2022/01/10 10:30:21;;;;;;;34.35;13.63;;;5.20;99.90;;;;;;5078497;28;20025;-68
2022/01/10 10:32:50;;;;;;;28.88;13.00;;;5.30;99.90;;;;;;5078218;28;20028;-68
2022/01/10 10:35:19;;;;;;;28.63;11.98;;;5.30;99.90;;;;;;5060947;28;20036;-72
2022/01/10 10:37:48;;;;;;;34.40;13.95;;;5.30;99.90;;;;;;5078592;28;20294;-76
2022/01/10 10:40:16;;;;;;;30.95;13.45;;;5.30;99.90;;;;;;5078190;28;20103;-74
2022/01/10 10:42:45;;;;;;;31.85;14.02;;;5.30;99.90;;;;;;5078046;28;20046;-78
2022/01/10 10:45:14;;;;;;;32.40;13.15;;;5.30;99.90;;;;;;5077227;28;20028;-68
2022/01/10 10:47:45;;;;;;;31.08;13.30;;;5.30;99.90;;;;;;5077315;28;20020;-68
2022/01/10 10:50:13;;;;;;;26.38;12.98;;;5.30;99.90;;;;;;5077035;28;20051;-68
2022/01/10 10:52:41;;;;;;;34.15;13.90;;;5.40;99.90;;;;;;5059294;28;20378;-68
2022/01/10 10:55:14;;;;;;;39.25;14.35;;;5.40;99.90;;;;;;5059633;28;20031;-68
2022/01/10 10:57:42;;;;;;;31.13;13.55;;;5.40;99.90;;;;;;5077062;28;20029;-68
2022/01/10 11:00:15;;;;;;;29.23;14.43;;;5.40;99.90;;;;;;5076851;28;20104;-68
2022/01/10 11:02:43;;;;;;;28.35;14.25;;;5.50;99.90;;;;;;5077052;28;20024;-68
2022/01/10 11:05:12;;;;;;;29.27;13.93;;;5.50;99.90;;;;;;5077729;28;20048;-68
2022/01/10 11:07:39;;;;;;;29.88;15.02;;;5.60;99.90;;;;;;5078001;28;20032;-68
2022/01/10 11:10:07;;;;;;;31.38;13.48;;;5.60;99.90;;;;;;5060078;28;20398;-68
2022/01/10 11:12:40;;;;;;;31.52;13.27;;;5.60;99.90;;;;;;5078093;28;20485;-68
2022/01/10 11:15:09;;;;;;;34.67;14.95;;;5.60;99.90;;;;;;5078254;28;20021;-67
2022/01/10 11:17:42;;;;;;;32.55;13.63;;;5.50;99.90;;;;;;5097640;28;20092;-68
2022/01/10 11:20:23;;;;;;;32.20;13.15;;;5.60;99.90;;;;;;5098071;28;20410;-69
2022/01/10 11:22:59;;;;;;;31.20;14.30;;;5.60;99.90;;;;;;5097833;28;20032;-68
2022/01/10 11:25:35;;;;;;;33.95;14.63;;;5.70;99.90;;;;;;5096930;28;20106;-73
2022/01/10 11:28:06;;;;;;;29.90;14.20;;;5.70;99.90;;;;;;5096854;28;20032;-70
2022/01/10 11:30:44;;;;;;;37.85;16.52;;;5.70;99.90;;;;;;5097402;28;20032;-74
2022/01/10 11:33:16;;;;;;;31.48;14.60;;;5.70;99.90;;;;;;5096708;28;20435;-75
2022/01/10 11:36:10;;;;;;;31.33;14.52;;;5.70;99.90;;;;;;5079199;28;20024;-68
2022/01/10 11:38:48;;;;;;;27.70;14.18;;;5.70;99.90;;;;;;5096533;28;20099;-68
2022/01/10 11:41:20;;;;;;;41.45;17.33;;;5.70;99.90;;;;;;5096560;28;20073;-68
2022/01/10 11:44:08;;;;;;;42.50;15.82;;;5.70;99.90;;;;;;5096597;28;20030;-68
2022/01/10 11:46:43;;;;;;;37.90;15.10;;;5.80;99.90;;;;;;5097229;28;20028;-68
2022/01/10 11:49:12;;;;;;;31.50;14.60;;;5.80;99.90;;;;;;5097463;28;20035;-68
2022/01/10 11:51:50;;;;;;;34.40;16.48;;;5.80;99.90;;;;;;5097395;28;20034;-68
2022/01/10 11:54:28;;;;;;;38.15;14.93;;;5.80;99.90;;;;;;5097754;28;20028;-68
2022/01/10 11:57:04;;;;;;;38.63;15.43;;;5.90;99.90;;;;;;5097811;28;20403;-68
2022/01/10 11:59:40;;;;;;;32.85;16.95;;;5.90;99.90;;;;;;5097478;28;20020;-68
2022/01/10 12:02:16;;;;;;;30.98;15.05;;;6.00;99.90;;;;;;5097319;28;20032;-68
2022/01/10 12:04:49;;;;;;;44.30;16.55;;;6.00;99.90;;;;;;5097388;28;20024;-68
2022/01/10 12:07:21;;;;;;;43.88;17.38;;;6.10;99.90;;;;;;5096980;28;20020;-70
2022/01/10 12:09:49;;;;;;;38.15;15.57;;;6.10;99.90;;;;;;5096286;28;20028;-68
2022/01/10 12:12:19;;;;;;;41.08;16.90;;;6.10;99.90;;;;;;5062380;28;20415;-68
2022/01/10 12:14:48;;;;;;;57.55;20.98;;;6.20;99.90;;;;;;5100321;28;20350;-69
2022/01/10 12:17:15;;;;;;;34.10;14.95;;;6.20;99.90;;;;;;5100082;28;20096;-69
2022/01/10 12:19:44;;;;;;;35.10;15.35;;;6.30;99.90;;;;;;5100886;28;20153;-69
2022/01/10 12:22:11;;;;;;;32.65;13.57;;;6.20;99.90;;;;;;5100836;28;20043;-69
2022/01/10 12:24:43;;;;;;;33.92;15.75;;;6.20;99.90;;;;;;5082548;28;20024;-69
2022/01/10 12:27:15;;;;;;;35.92;15.55;;;6.20;99.90;;;;;;5100467;28;20099;-69
2022/01/10 12:29:43;;;;;;;38.55;14.10;;;6.20;99.90;;;;;;5102541;28;20312;-68
2022/01/10 12:32:14;;;;;;;33.15;14.88;;;6.20;99.90;;;;;;5101451;28;20339;-73
2022/01/10 12:34:44;;;;;;;36.25;14.50;;;6.30;99.90;;;;;;5083644;28;20031;-68
2022/01/10 12:37:11;;;;;;;30.05;12.48;;;6.20;99.90;;;;;;5100944;28;20029;-70
2022/01/10 12:39:40;;;;;;;40.67;15.95;;;6.20;99.90;;;;;;5100919;28;20099;-68
2022/01/10 12:42:08;;;;;;;38.20;15.32;;;6.20;99.90;;;;;;5100963;28;20024;-68
2022/01/10 12:44:35;;;;;;;40.78;17.30;;;6.20;99.90;;;;;;5100787;28;20031;-66
2022/01/10 12:47:03;;;;;;;26.48;12.25;;;6.20;99.90;;;;;;5100963;28;20037;-68
2022/01/10 12:49:30;;;;;;;23.05;12.68;;;6.20;99.90;;;;;;5081797;28;20339;-68
2022/01/10 12:51:59;;;;;;;26.27;12.52;;;6.20;99.90;;;;;;5081651;28;20077;-68
2022/01/10 12:54:29;;;;;;;25.73;14.10;;;6.10;99.90;;;;;;5099634;28;20336;-68
2022/01/10 12:56:59;;;;;;;28.58;11.73;;;6.10;99.90;;;;;;5099908;28;20317;-68